createdAt,value
2023-02-26T00:00:19.936Z,62728.05
2023-02-26T00:01:24.958Z,62727.11
2023-02-26T00:02:26.941Z,62730.91
2023-02-26T00:03:29.118Z,62736.63
2023-02-26T00:04:31.106Z,62720.44
2023-02-26T00:05:33.097Z,62724.66
2023-02-26T00:06:38.038Z,62729.96
2023-02-26T00:07:40.944Z,62733.23
2023-02-26T00:08:43.280Z,62725.74
2023-02-26T00:09:45.394Z,62725.74
2023-02-26T00:10:47.370Z,62723.43
2023-02-26T00:11:50.668Z,62726.70
2023-02-26T00:12:54.276Z,62730.10
2023-02-26T00:13:56.845Z,62725.34
2023-02-26T00:14:59.765Z,62716.50
2023-02-26T00:16:04.748Z,62713.91
2023-02-26T00:17:19.631Z,62722.35
2023-02-26T00:18:22.390Z,62720.30
2023-02-26T00:19:24.712Z,62708.87
2023-02-26T00:20:27.614Z,62700.72
2023-02-26T00:21:31.752Z,62701.80
2023-02-26T00:22:34.348Z,62717.99
2023-02-26T00:23:36.509Z,62720.30
2023-02-26T00:24:38.370Z,62716.36
2023-02-26T00:25:41.637Z,62706.70
2023-02-26T00:26:43.755Z,62716.08
2023-02-26T00:27:46.449Z,62714.32
2023-02-26T00:28:49.479Z,62715.00
2023-02-26T00:29:53.654Z,62726.84
2023-02-26T00:30:56.938Z,62715.40
2023-02-26T00:31:59.589Z,62714.18
2023-02-26T00:33:02.612Z,62725.20
2023-02-26T00:34:05.406Z,62728.89
2023-02-26T00:35:10.892Z,62726.02
2023-02-26T00:36:24.293Z,62713.37
2023-02-26T00:37:30.319Z,62717.45
2023-02-26T00:38:35.790Z,62715.40
2023-02-26T00:39:41.446Z,62711.06
2023-02-26T00:40:46.626Z,62723.03
2023-02-26T00:41:49.966Z,62724.52
2023-02-26T00:42:52.740Z,62727.25
2023-02-26T00:43:55.616Z,62735.96
2023-02-26T00:44:58.834Z,62742.61
2023-02-26T00:46:16.759Z,62746.97
2023-02-26T00:47:40.870Z,62750.78
2023-02-26T00:49:01.957Z,62750.92
2023-02-26T00:50:07.784Z,62758.11
2023-02-26T00:51:13.455Z,62728.61
2023-02-26T00:52:34.254Z,62748.05
2023-02-26T00:53:48.407Z,62747.51
2023-02-26T00:54:50.345Z,62741.54
2023-02-26T00:55:53.867Z,62745.20
2023-02-26T00:56:57.480Z,62750.24
2023-02-26T00:57:59.453Z,62735.42
2023-02-26T00:59:02.390Z,62735.42
2023-02-26T01:00:06.380Z,62728.61
2023-02-26T01:01:08.858Z,62722.47
2023-02-26T01:02:11.695Z,62729.96
2023-02-26T01:03:14.273Z,62707.37
2023-02-26T01:04:19.820Z,62718.93
2023-02-26T01:05:22.540Z,62722.61
2023-02-26T01:06:27.927Z,62717.17
2023-02-26T01:07:33.613Z,62729.84
2023-02-26T01:08:39.312Z,62724.78
2023-02-26T01:09:41.846Z,62723.43
2023-02-26T01:10:44.923Z,62720.44
2023-02-26T01:11:48.863Z,62695.41
2023-02-26T01:12:51.777Z,62697.32
2023-02-26T01:13:54.566Z,62700.17
2023-02-26T01:14:57.485Z,62701.94
2023-02-26T01:16:03.281Z,62698.67
2023-02-26T01:17:27.291Z,62699.21
2023-02-26T01:18:32.993Z,62704.53
2023-02-26T01:19:57.088Z,62698.67
2023-02-26T01:21:02.365Z,62695.82
2023-02-26T01:22:11.130Z,62682.09
2023-02-26T01:23:16.059Z,62682.22
2023-02-26T01:24:21.998Z,62671.48
2023-02-26T01:25:36.609Z,62684.67
2023-02-26T01:26:39.047Z,62680.59
2023-02-26T01:27:41.499Z,62696.90
2023-02-26T01:28:44.781Z,62678.96
2023-02-26T01:29:47.560Z,62698.81
2023-02-26T01:30:56.660Z,62708.19
2023-02-26T01:32:20.728Z,62689.41
2023-02-26T01:33:33.079Z,62683.98
2023-02-26T01:35:00.109Z,62702.08
2023-02-26T01:36:09.611Z,62694.19
2023-02-26T01:37:20.800Z,62697.46
2023-02-26T01:38:50.993Z,62707.23
2023-02-26T01:40:02.517Z,62703.01
2023-02-26T01:41:26.830Z,62691.88
2023-02-26T01:42:31.466Z,62692.42
2023-02-26T01:43:47.592Z,62691.05
2023-02-26T01:45:12.861Z,62713.23
2023-02-26T01:46:41.885Z,62704.39
2023-02-26T01:47:56.195Z,62699.49
2023-02-26T01:48:59.187Z,62712.14
2023-02-26T01:50:20.499Z,62691.05
2023-02-26T01:51:52.386Z,62698.67
2023-02-26T01:53:05.122Z,62710.38
2023-02-26T01:54:07.582Z,62716.08
2023-02-26T01:55:10.532Z,62698.00
2023-02-26T01:56:19.106Z,62703.01
2023-02-26T01:57:22.706Z,62700.84
2023-02-26T01:58:28.526Z,62695.82
2023-02-26T01:59:33.217Z,62687.80
2023-02-26T02:00:35.747Z,62703.99
2023-02-26T02:01:39.475Z,62702.89
2023-02-26T02:02:41.997Z,62710.38
2023-02-26T02:03:45.288Z,62680.18
2023-02-26T02:04:50.381Z,62681.67
2023-02-26T02:06:04.785Z,62671.89
2023-02-26T02:07:07.581Z,62678.40
2023-02-26T02:08:11.481Z,62686.57
2023-02-26T02:09:14.292Z,62690.39
2023-02-26T02:10:17.631Z,62667.53
2023-02-26T02:11:20.285Z,62679.91
2023-02-26T02:12:31.925Z,62698.27
2023-02-26T02:13:52.702Z,62690.51
2023-02-26T02:14:58.941Z,62686.03
2023-02-26T02:16:13.665Z,62678.54
2023-02-26T02:17:37.448Z,62689.15
2023-02-26T02:18:49.214Z,62681.27
2023-02-26T02:20:00.483Z,62691.05
2023-02-26T02:21:36.924Z,62684.93
2023-02-26T02:22:54.644Z,62683.30
2023-02-26T02:24:17.273Z,62691.05
2023-02-26T02:25:40.027Z,62684.81
2023-02-26T02:27:01.248Z,62695.82
2023-02-26T02:28:24.596Z,62706.58
2023-02-26T02:29:36.216Z,62681.55
2023-02-26T02:31:07.821Z,62686.03
2023-02-26T02:33:43.299Z,62691.72
2023-02-26T02:35:04.427Z,62680.18
2023-02-26T02:36:17.380Z,62694.73
2023-02-26T02:37:39.948Z,62680.59
2023-02-26T02:38:46.082Z,62682.76
2023-02-26T02:40:04.036Z,62672.29
2023-02-26T02:41:09.717Z,62663.73
2023-02-26T02:42:25.406Z,62668.62
2023-02-26T02:43:31.367Z,62656.78
2023-02-26T02:44:37.447Z,62669.16
2023-02-26T02:45:49.284Z,62677.86
2023-02-26T02:46:56.342Z,62672.85
2023-02-26T02:48:05.395Z,62670.54
2023-02-26T02:49:33.661Z,62685.89
2023-02-26T02:50:42.369Z,62664.15
2023-02-26T02:51:49.759Z,62678.40
2023-02-26T02:52:58.328Z,62658.16
2023-02-26T02:54:13.358Z,62679.38
2023-02-26T02:55:28.262Z,62675.16
2023-02-26T02:56:46.168Z,62668.75
2023-02-26T02:58:08.513Z,62665.48
2023-02-26T02:59:14.190Z,62670.52
2023-02-26T03:00:20.000Z,62664.27
2023-02-26T03:01:25.650Z,62675.55
2023-02-26T03:02:31.590Z,62662.52
2023-02-26T03:03:46.758Z,62673.80
2023-02-26T03:04:49.301Z,62669.70
2023-02-26T03:05:52.369Z,62667.11
2023-02-26T03:06:54.677Z,62670.12
2023-02-26T03:08:00.323Z,62675.55
2023-02-26T03:09:05.719Z,62675.16
2023-02-26T03:10:10.664Z,62676.65
2023-02-26T03:11:15.859Z,62673.64
2023-02-26T03:12:18.649Z,62679.38
2023-02-26T03:13:24.711Z,62666.32
2023-02-26T03:14:29.090Z,62664.27
2023-02-26T03:15:44.044Z,62657.34
2023-02-26T03:16:55.734Z,62670.12
2023-02-26T03:18:04.653Z,62655.43
2023-02-26T03:19:19.558Z,62652.30
2023-02-26T03:20:37.073Z,62666.32
2023-02-26T03:21:55.085Z,62675.16
2023-02-26T03:23:00.916Z,62676.65
2023-02-26T03:24:19.767Z,62649.99
2023-02-26T03:25:42.032Z,62661.42
2023-02-26T03:26:48.224Z,62674.48
2023-02-26T03:28:05.475Z,62661.14
2023-02-26T03:29:26.735Z,62668.21
2023-02-26T03:31:58.578Z,62677.07
2023-02-26T03:33:10.508Z,62671.34
2023-02-26T03:34:19.111Z,62661.68
2023-02-26T03:35:27.847Z,62664.95
2023-02-26T03:36:40.717Z,62676.65
2023-02-26T03:37:46.400Z,62674.48
2023-02-26T03:39:10.614Z,62675.70
2023-02-26T03:41:29.250Z,62687.12
2023-02-26T03:42:50.086Z,62655.57
2023-02-26T03:43:59.854Z,62660.46
2023-02-26T03:45:26.175Z,62660.46
2023-02-26T03:47:43.514Z,62678.54
2023-02-26T03:48:47.809Z,62678.28
2023-02-26T03:49:56.510Z,62658.55
2023-02-26T03:51:02.281Z,62650.55
2023-02-26T03:52:05.662Z,62655.03
2023-02-26T03:53:11.940Z,62655.83
2023-02-26T03:54:26.904Z,62664.42
2023-02-26T03:55:52.911Z,62647.96
2023-02-26T03:56:56.693Z,62654.89
2023-02-26T03:57:59.352Z,62657.06
2023-02-26T03:59:02.515Z,62655.98
2023-02-26T04:00:07.081Z,62653.40
2023-02-26T04:01:15.508Z,62663.31
2023-02-26T04:02:24.557Z,62668.48
2023-02-26T04:03:46.381Z,62652.04
2023-02-26T04:05:13.713Z,62654.07
2023-02-26T04:06:16.498Z,62652.84
2023-02-26T04:07:20.339Z,62664.27
2023-02-26T04:08:23.713Z,62656.66
2023-02-26T04:09:26.370Z,62651.62
2023-02-26T04:11:55.710Z,62662.63
2023-02-26T04:13:02.504Z,62669.02
2023-02-26T04:14:05.567Z,62659.25
2023-02-26T04:15:09.011Z,62651.62
2023-02-26T04:16:12.218Z,62656.25
2023-02-26T04:17:17.427Z,62647.55
2023-02-26T04:18:19.962Z,62657.06
2023-02-26T04:19:22.275Z,62660.74
2023-02-26T04:20:24.766Z,62654.47
2023-02-26T04:21:26.752Z,62645.38
2023-02-26T04:22:28.770Z,62642.93
2023-02-26T04:23:30.649Z,62637.49
2023-02-26T04:24:32.673Z,62640.34
2023-02-26T04:25:34.554Z,62656.52
2023-02-26T04:26:36.645Z,62643.75
2023-02-26T04:27:38.724Z,62644.56
2023-02-26T04:28:41.432Z,62648.78
2023-02-26T04:29:44.416Z,62646.33
2023-02-26T04:30:46.827Z,62653.93
2023-02-26T04:31:49.932Z,62649.46
2023-02-26T04:32:52.064Z,62654.89
2023-02-26T04:33:53.946Z,62657.88
2023-02-26T04:34:56.465Z,62642.65
2023-02-26T04:35:59.806Z,62651.09
2023-02-26T04:37:01.857Z,62659.93
2023-02-26T04:38:06.043Z,62655.15
2023-02-26T04:39:07.952Z,62659.09
2023-02-26T04:40:12.717Z,62664.95
2023-02-26T04:41:14.769Z,62652.98
2023-02-26T04:42:16.794Z,62655.98
2023-02-26T04:43:19.172Z,62648.63
2023-02-26T04:44:21.142Z,62665.10
2023-02-26T04:45:23.035Z,62660.05
2023-02-26T04:46:25.505Z,62666.44
2023-02-26T04:47:28.664Z,62646.45
2023-02-26T04:48:32.741Z,62657.34
2023-02-26T04:49:34.813Z,62660.32
2023-02-26T04:50:36.822Z,62655.30
2023-02-26T04:51:39.372Z,62646.19
2023-02-26T04:52:41.275Z,62638.29
2023-02-26T04:53:43.313Z,62640.34
2023-02-26T04:54:45.296Z,62641.56
2023-02-26T04:55:50.726Z,62656.66
2023-02-26T04:56:52.296Z,62657.88
2023-02-26T04:57:54.167Z,62662.52
2023-02-26T04:58:56.412Z,62645.38
2023-02-26T04:59:59.484Z,62647.96
2023-02-26T05:01:01.752Z,62660.46
2023-02-26T05:02:04.426Z,62648.36
2023-02-26T05:03:06.506Z,62638.85
2023-02-26T05:04:08.698Z,62645.52
2023-02-26T05:05:13.406Z,62644.82
2023-02-26T05:06:16.144Z,62649.60
2023-02-26T05:07:18.098Z,62641.70
2023-02-26T05:08:20.188Z,62642.79
2023-02-26T05:09:22.175Z,62649.99
2023-02-26T05:10:24.752Z,62646.73
2023-02-26T05:11:26.820Z,62641.44
2023-02-26T05:12:29.225Z,62651.89
2023-02-26T05:13:31.144Z,62661.68
2023-02-26T05:14:33.149Z,62663.85
2023-02-26T05:15:35.194Z,62663.85
2023-02-26T05:16:37.723Z,62651.89
2023-02-26T05:17:39.629Z,62661.96
2023-02-26T05:18:41.544Z,62661.96
2023-02-26T05:19:43.671Z,62642.65
2023-02-26T05:20:45.672Z,62638.85
2023-02-26T05:21:47.662Z,62655.98
2023-02-26T05:22:49.826Z,62658.83
2023-02-26T05:23:51.736Z,62664.27
2023-02-26T05:24:53.611Z,62678.28
2023-02-26T05:25:57.419Z,62672.96
2023-02-26T05:26:59.886Z,62674.06
2023-02-26T05:28:02.152Z,62676.37
2023-02-26T05:29:04.140Z,62687.52
2023-02-26T05:30:08.773Z,62681.81
2023-02-26T05:31:12.731Z,62686.45
2023-02-26T05:32:15.289Z,62677.86
2023-02-26T05:33:18.296Z,62670.26
2023-02-26T05:34:20.460Z,62669.70
2023-02-26T05:35:22.693Z,62663.73
2023-02-26T05:36:25.293Z,62682.09
2023-02-26T05:37:27.546Z,62677.74
2023-02-26T05:38:29.492Z,62652.98
2023-02-26T05:39:32.867Z,62673.64
2023-02-26T05:40:34.988Z,62686.98
2023-02-26T05:41:37.381Z,62681.67
2023-02-26T05:42:39.839Z,62690.79
2023-02-26T05:43:43.142Z,62694.05
2023-02-26T05:44:45.071Z,62696.90
2023-02-26T05:45:49.816Z,62696.90
2023-02-26T05:46:52.136Z,62695.95
2023-02-26T05:47:54.056Z,62682.62
2023-02-26T05:48:57.212Z,62695.57
2023-02-26T05:49:59.553Z,62688.87
2023-02-26T05:51:03.657Z,62703.17
2023-02-26T05:52:05.718Z,62705.60
2023-02-26T05:53:07.770Z,62696.78
2023-02-26T05:54:10.190Z,62703.85
2023-02-26T05:55:13.213Z,62701.26
2023-02-26T05:56:17.838Z,62713.65
2023-02-26T05:57:20.074Z,62712.14
2023-02-26T05:58:22.452Z,62704.95
2023-02-26T05:59:24.807Z,62689.97
2023-02-26T06:00:27.500Z,62704.95
2023-02-26T06:01:29.397Z,62706.02
2023-02-26T06:02:31.499Z,62709.96
2023-02-26T06:03:33.503Z,62695.68
2023-02-26T06:04:35.664Z,62690.79
2023-02-26T06:05:37.663Z,62687.12
2023-02-26T06:06:40.441Z,62677.33
2023-02-26T06:07:43.030Z,62673.64
2023-02-26T06:08:45.617Z,62688.34
2023-02-26T06:09:48.466Z,62685.61
2023-02-26T06:10:51.434Z,62693.52
2023-02-26T06:11:53.495Z,62683.44
2023-02-26T06:12:55.400Z,62684.93
2023-02-26T06:13:57.723Z,62703.43
2023-02-26T06:15:00.114Z,62707.91
2023-02-26T06:16:02.565Z,62708.19
2023-02-26T06:17:05.415Z,62721.26
2023-02-26T06:18:07.632Z,62716.91
2023-02-26T06:19:09.905Z,62720.44
2023-02-26T06:20:13.553Z,62739.09
2023-02-26T06:21:18.191Z,62733.23
2023-02-26T06:22:21.118Z,62744.80
2023-02-26T06:23:23.114Z,62706.70
2023-02-26T06:24:25.520Z,62702.36
2023-02-26T06:25:27.406Z,62713.37
2023-02-26T06:26:29.980Z,62727.93
2023-02-26T06:27:32.031Z,62742.49
2023-02-26T06:28:33.916Z,62729.43
2023-02-26T06:29:35.891Z,62730.64
2023-02-26T06:30:37.914Z,62708.19
2023-02-26T06:31:39.993Z,62708.33
2023-02-26T06:32:42.644Z,62707.23
2023-02-26T06:33:44.926Z,62713.77
2023-02-26T06:34:46.821Z,62720.84
2023-02-26T06:35:49.097Z,62716.50
2023-02-26T06:36:51.905Z,62716.91
2023-02-26T06:37:53.752Z,62719.34
2023-02-26T06:38:56.546Z,62727.37
2023-02-26T06:39:58.537Z,62742.61
2023-02-26T06:41:00.583Z,62727.25
2023-02-26T06:42:02.444Z,62727.79
2023-02-26T06:43:04.638Z,62739.22
2023-02-26T06:44:07.130Z,62752.83
2023-02-26T06:45:10.714Z,62759.37
2023-02-26T06:46:13.453Z,62757.57
2023-02-26T06:47:17.087Z,62763.43
2023-02-26T06:48:18.989Z,62761.54
2023-02-26T06:49:21.012Z,62737.85
2023-02-26T06:50:23.139Z,62750.36
2023-02-26T06:51:25.689Z,62744.92
2023-02-26T06:52:27.595Z,62734.44
2023-02-26T06:53:29.476Z,62754.18
2023-02-26T06:54:31.354Z,62731.99
2023-02-26T06:55:33.338Z,62756.64
2023-02-26T06:56:35.493Z,62763.29
2023-02-26T06:57:37.602Z,62764.39
2023-02-26T06:58:39.664Z,62748.47
2023-02-26T06:59:41.703Z,62758.95
2023-02-26T07:00:44.307Z,62746.30
2023-02-26T07:01:46.330Z,62758.81
2023-02-26T07:02:49.608Z,62744.13
2023-02-26T07:03:51.509Z,62761.80
2023-02-26T07:04:53.545Z,62765.48
2023-02-26T07:05:55.594Z,62742.61
2023-02-26T07:06:57.620Z,62753.09
2023-02-26T07:07:59.507Z,62765.07
2023-02-26T07:09:01.430Z,62777.46
2023-02-26T07:10:05.044Z,62771.06
2023-02-26T07:11:08.439Z,62771.46
2023-02-26T07:12:10.330Z,62741.66
2023-02-26T07:13:13.850Z,62760.04
2023-02-26T07:14:19.017Z,62754.18
2023-02-26T07:15:20.957Z,62753.51
2023-02-26T07:16:23.222Z,62763.97
2023-02-26T07:17:25.271Z,62768.33
2023-02-26T07:18:27.154Z,62776.36
2023-02-26T07:19:29.201Z,62784.00
2023-02-26T07:20:31.631Z,62781.80
2023-02-26T07:21:33.536Z,62767.52
2023-02-26T07:22:36.907Z,62755.26
2023-02-26T07:23:39.608Z,62768.07
2023-02-26T07:24:42.700Z,62773.09
2023-02-26T07:25:44.702Z,62767.80
2023-02-26T07:26:46.959Z,62781.41
2023-02-26T07:27:48.822Z,62793.24
2023-02-26T07:28:50.704Z,62777.46
2023-02-26T07:29:52.611Z,62774.31
2023-02-26T07:30:55.963Z,62789.30
2023-02-26T07:31:58.188Z,62794.20
2023-02-26T07:33:00.952Z,62785.49
2023-02-26T07:34:04.981Z,62804.68
2023-02-26T07:35:08.080Z,62789.02
2023-02-26T07:36:10.913Z,62789.30
2023-02-26T07:37:14.181Z,62795.55
2023-02-26T07:38:17.561Z,62785.49
2023-02-26T07:39:19.913Z,62791.89
2023-02-26T07:40:22.029Z,62791.61
2023-02-26T07:41:24.382Z,62786.71
2023-02-26T07:42:26.618Z,62801.42
2023-02-26T07:43:29.517Z,62807.11
2023-02-26T07:44:31.576Z,62810.13
2023-02-26T07:45:33.593Z,62814.07
2023-02-26T07:46:35.729Z,62821.43
2023-02-26T07:47:38.079Z,62805.64
2023-02-26T07:48:40.488Z,62784.67
2023-02-26T07:49:44.606Z,62785.75
2023-02-26T07:50:46.866Z,62796.51
2023-02-26T07:51:48.881Z,62808.07
2023-02-26T07:52:52.208Z,62797.19
2023-02-26T07:53:54.154Z,62820.61
2023-02-26T07:54:56.025Z,62814.89
2023-02-26T07:55:58.125Z,62818.84
2023-02-26T07:57:00.712Z,62824.96
2023-02-26T07:58:02.668Z,62845.14
2023-02-26T07:59:05.133Z,62832.04
2023-02-26T08:00:09.892Z,62845.96
2023-02-26T08:01:12.104Z,62815.99
2023-02-26T08:02:14.035Z,62811.62
2023-02-26T08:03:15.929Z,62811.62
2023-02-26T08:04:17.941Z,62831.50
2023-02-26T08:05:20.155Z,62838.04
2023-02-26T08:06:22.196Z,62835.73
2023-02-26T08:07:24.085Z,62828.23
2023-02-26T08:08:27.197Z,62840.77
2023-02-26T08:09:29.686Z,62852.62
2023-02-26T08:10:34.626Z,62852.62
2023-02-26T08:11:36.690Z,62859.83
2023-02-26T08:12:38.805Z,62867.45
2023-02-26T08:13:40.797Z,62860.37
2023-02-26T08:14:44.433Z,62875.09
2023-02-26T08:16:57.742Z,62872.89
2023-02-26T08:17:59.957Z,62836.94
2023-02-26T08:19:01.869Z,62844.02
2023-02-26T08:20:05.029Z,62852.75
2023-02-26T08:21:07.027Z,62860.91
2023-02-26T08:22:08.966Z,62854.39
2023-02-26T08:23:10.824Z,62839.13
2023-02-26T08:24:13.491Z,62857.64
2023-02-26T08:25:15.717Z,62862.96
2023-02-26T08:26:19.296Z,62861.47
2023-02-26T08:27:21.460Z,62879.86
2023-02-26T08:28:23.352Z,62876.17
2023-02-26T08:29:25.360Z,62847.03
2023-02-26T08:30:27.511Z,62867.05
2023-02-26T08:31:30.806Z,62864.18
2023-02-26T08:32:33.666Z,62871.14
2023-02-26T08:33:35.617Z,62829.04
2023-02-26T08:34:37.698Z,62856.56
2023-02-26T08:35:39.764Z,62845.12
2023-02-26T08:36:42.132Z,62851.52
2023-02-26T08:37:44.056Z,62830.96
2023-02-26T08:38:45.944Z,62856.98
2023-02-26T08:39:47.838Z,62860.65
2023-02-26T08:40:50.337Z,62846.07
2023-02-26T08:41:52.233Z,62859.44
2023-02-26T08:42:54.227Z,62856.56
2023-02-26T08:43:56.231Z,62865.82
2023-02-26T08:44:58.137Z,62832.46
2023-02-26T08:46:00.228Z,62844.32
2023-02-26T08:47:02.618Z,62846.07
2023-02-26T08:48:07.497Z,62860.23
2023-02-26T08:49:10.710Z,62871.56
2023-02-26T08:50:12.771Z,62883.67
2023-02-26T08:51:14.820Z,62880.28
2023-02-26T08:52:16.686Z,62896.22
2023-02-26T08:53:18.591Z,62890.63
2023-02-26T08:54:20.454Z,62857.38
2023-02-26T08:55:22.767Z,62872.36
2023-02-26T08:56:25.352Z,62880.54
2023-02-26T08:57:27.559Z,62887.08
2023-02-26T08:58:31.269Z,62869.09
2023-02-26T08:59:36.482Z,62892.67
2023-02-26T09:00:38.605Z,62885.98
2023-02-26T09:01:40.540Z,62893.62
2023-02-26T09:02:42.517Z,62896.34
2023-02-26T09:03:44.498Z,62901.66
2023-02-26T09:04:46.410Z,62913.91
2023-02-26T09:05:49.276Z,62882.85
2023-02-26T09:06:51.640Z,62864.74
2023-02-26T09:07:53.570Z,62875.09
2023-02-26T09:08:55.466Z,62898.39
2023-02-26T09:09:57.379Z,62915.29
2023-02-26T09:11:01.484Z,62885.44
2023-02-26T09:12:04.623Z,62870.05
2023-02-26T09:13:06.562Z,62873.04
2023-02-26T09:14:08.434Z,62889.25
2023-02-26T09:15:12.141Z,62914.87
2023-02-26T09:16:14.849Z,62928.50
2023-02-26T09:17:17.033Z,62924.43
2023-02-26T09:18:18.955Z,62879.04
2023-02-26T09:19:22.153Z,62884.34
2023-02-26T09:20:24.501Z,62882.17
2023-02-26T09:21:28.028Z,62883.27
2023-02-26T09:22:30.565Z,62907.79
2023-02-26T09:23:32.410Z,62918.68
2023-02-26T09:24:34.666Z,62931.77
2023-02-26T09:25:36.829Z,62944.73
2023-02-26T09:26:38.829Z,62957.26
2023-02-26T09:27:42.385Z,62955.76
2023-02-26T09:28:44.448Z,62948.96
2023-02-26T09:29:46.710Z,62911.88
2023-02-26T09:30:51.905Z,62908.21
2023-02-26T09:31:54.382Z,62931.52
2023-02-26T09:32:57.527Z,62943.63
2023-02-26T09:33:59.439Z,62888.04
2023-02-26T09:35:01.321Z,62906.43
2023-02-26T09:36:04.482Z,62908.32
2023-02-26T09:37:08.294Z,62904.52
2023-02-26T09:38:10.192Z,62926.75
2023-02-26T09:39:12.924Z,62922.37
2023-02-26T09:40:21.915Z,62922.80
2023-02-26T09:41:33.676Z,62928.25
2023-02-26T09:42:53.927Z,62920.87
2023-02-26T09:44:02.338Z,62914.87
2023-02-26T09:45:07.519Z,62928.07
2023-02-26T09:47:32.652Z,62923.47
2023-02-26T09:48:39.600Z,62936.54
2023-02-26T09:49:54.311Z,62933.41
2023-02-26T09:50:58.868Z,62944.30
2023-02-26T09:52:13.807Z,62912.27
2023-02-26T09:53:34.610Z,62923.59
2023-02-26T09:54:43.316Z,62942.67
2023-02-26T09:55:48.352Z,62936.14
2023-02-26T09:56:52.818Z,62933.54
2023-02-26T09:58:04.673Z,62955.34
2023-02-26T09:59:09.500Z,62954.01
2023-02-26T10:00:35.363Z,62968.72
2023-02-26T10:01:50.331Z,62966.41
2023-02-26T10:03:18.738Z,62931.77
2023-02-26T10:04:47.338Z,62960.00
2023-02-26T10:06:11.467Z,62967.64
2023-02-26T10:08:52.561Z,62951.41
2023-02-26T10:10:10.196Z,62968.72
2023-02-26T10:11:39.038Z,62968.05
2023-02-26T10:12:43.383Z,62992.32
2023-02-26T10:13:58.703Z,62975.41
2023-02-26T10:15:12.152Z,62994.61
2023-02-26T10:16:18.133Z,63010.19
2023-02-26T10:17:35.681Z,63026.01
2023-02-26T10:18:46.359Z,63036.38
2023-02-26T10:19:52.127Z,63024.49
2023-02-26T10:21:16.698Z,63037.59
2023-02-26T10:22:28.232Z,63037.59
2023-02-26T10:23:44.006Z,62991.08
2023-02-26T10:24:49.953Z,63011.41
2023-02-26T10:26:18.655Z,63040.44
2023-02-26T10:27:24.431Z,63049.06
2023-02-26T10:28:36.265Z,63059.00
2023-02-26T10:29:50.676Z,63072.27
2023-02-26T10:31:02.535Z,63077.14
2023-02-26T10:32:11.277Z,63084.95
2023-02-26T10:33:28.965Z,63099.16
2023-02-26T10:36:04.372Z,63051.77
2023-02-26T10:37:22.108Z,63068.70
2023-02-26T10:38:27.532Z,63077.45
2023-02-26T10:39:33.615Z,63086.18
2023-02-26T10:40:54.593Z,63083.62
2023-02-26T10:41:59.582Z,63061.61
2023-02-26T10:43:19.789Z,63054.80
2023-02-26T10:44:25.573Z,63072.54
2023-02-26T10:45:43.393Z,63069.80
2023-02-26T10:46:52.104Z,63071.01
2023-02-26T10:48:06.520Z,63063.54
2023-02-26T10:49:24.562Z,63045.91
2023-02-26T10:50:27.754Z,63046.32
2023-02-26T10:51:38.770Z,63067.37
2023-02-26T10:52:44.185Z,63079.09
2023-02-26T10:53:55.967Z,63074.29
2023-02-26T10:55:19.944Z,63073.75
2023-02-26T10:56:30.404Z,63073.75
2023-02-26T10:57:36.158Z,63093.95
2023-02-26T10:58:38.432Z,63106.93
2023-02-26T10:59:40.604Z,63111.85
2023-02-26T11:00:49.401Z,63095.34
2023-02-26T11:01:52.344Z,63092.18
2023-02-26T11:02:56.459Z,63092.18
2023-02-26T11:04:01.934Z,63056.69
2023-02-26T11:05:08.941Z,63077.32
2023-02-26T11:06:15.026Z,63098.20
2023-02-26T11:07:17.435Z,63115.12
2023-02-26T11:08:27.938Z,63127.55
2023-02-26T11:09:42.716Z,63126.84
2023-02-26T11:10:48.595Z,63128.22
2023-02-26T11:11:57.306Z,63087.82
2023-02-26T11:12:59.235Z,63098.20
2023-02-26T11:14:01.935Z,63098.20
2023-02-26T11:15:04.921Z,63102.01
2023-02-26T11:16:13.737Z,63130.42
2023-02-26T11:17:25.216Z,63124.27
2023-02-26T11:18:28.904Z,63090.00
2023-02-26T11:19:34.566Z,63098.73
2023-02-26T11:20:44.037Z,63102.44
2023-02-26T11:21:46.885Z,63118.27
2023-02-26T11:22:52.147Z,63118.27
2023-02-26T11:24:09.812Z,63102.68
2023-02-26T11:25:15.516Z,63131.38
2023-02-26T11:26:19.321Z,63130.42
2023-02-26T11:27:27.858Z,63145.73
2023-02-26T11:28:39.556Z,63154.47
2023-02-26T11:29:44.306Z,63135.87
2023-02-26T11:30:46.980Z,63107.47
2023-02-26T11:31:55.641Z,63129.02
2023-02-26T11:33:00.533Z,63153.37
2023-02-26T11:34:05.486Z,63142.45
2023-02-26T11:35:09.841Z,63121.93
2023-02-26T11:36:15.422Z,63105.83
2023-02-26T11:37:21.323Z,63116.20
2023-02-26T11:38:26.212Z,63125.07
2023-02-26T11:39:31.387Z,63120.04
2023-02-26T11:40:39.682Z,63120.04
2023-02-26T11:41:45.325Z,63139.16
2023-02-26T11:42:53.369Z,63163.64
2023-02-26T11:44:01.980Z,63163.64
2023-02-26T11:45:06.538Z,63140.81
2023-02-26T11:46:10.411Z,63118.94
2023-02-26T11:47:19.154Z,63108.01
2023-02-26T11:48:25.234Z,63135.74
2023-02-26T11:49:28.840Z,63147.91
2023-02-26T11:50:34.383Z,63151.19
2023-02-26T11:51:36.469Z,63124.40
2023-02-26T11:52:44.403Z,63106.39
2023-02-26T11:53:55.335Z,63064.77
2023-02-26T11:55:01.090Z,63100.24
2023-02-26T11:56:09.741Z,63101.59
2023-02-26T11:57:21.140Z,63106.93
2023-02-26T11:58:24.764Z,63090.68
2023-02-26T11:59:30.462Z,63119.48
2023-02-26T12:00:38.561Z,63119.91
2023-02-26T12:01:41.010Z,63140.12
2023-02-26T12:02:42.967Z,63119.05
2023-02-26T12:03:48.108Z,63119.48
2023-02-26T12:04:56.719Z,63099.83
2023-02-26T12:06:01.047Z,63097.52
2023-02-26T12:07:03.059Z,63119.48
2023-02-26T12:09:25.594Z,63117.44
2023-02-26T12:10:40.676Z,63113.48
2023-02-26T12:12:21.518Z,63111.60
2023-02-26T12:13:38.869Z,63110.75
2023-02-26T12:14:47.741Z,63120.04
2023-02-26T12:15:56.188Z,63120.04
2023-02-26T12:17:08.498Z,63117.98
2023-02-26T12:18:25.791Z,63137.52
2023-02-26T12:19:40.603Z,63141.35
2023-02-26T12:20:46.417Z,63145.73
2023-02-26T12:22:16.705Z,63108.68
2023-02-26T12:23:43.102Z,63115.53
2023-02-26T12:25:18.069Z,63124.94
2023-02-26T12:26:27.932Z,63129.86
2023-02-26T12:27:50.186Z,63135.34
2023-02-26T12:29:05.173Z,63126.04
2023-02-26T12:30:23.125Z,63141.20
2023-02-26T12:31:43.706Z,63139.71
2023-02-26T12:33:21.691Z,63128.64
2023-02-26T12:34:45.269Z,63140.12
2023-02-26T12:36:07.492Z,63126.04
2023-02-26T12:37:34.036Z,63117.98
2023-02-26T12:39:04.461Z,63100.91
2023-02-26T12:40:28.926Z,63110.75
2023-02-26T12:41:40.568Z,63089.46
2023-02-26T12:43:03.109Z,63071.68
2023-02-26T12:44:08.827Z,63072.11
2023-02-26T12:47:03.464Z,63105.83
2023-02-26T12:48:38.485Z,63112.93
2023-02-26T12:49:53.313Z,63101.34
2023-02-26T12:51:03.446Z,63107.47
2023-02-26T12:52:30.135Z,63096.31
2023-02-26T12:53:42.030Z,63108.57
2023-02-26T12:54:53.579Z,63111.55
2023-02-26T12:56:28.510Z,63125.36
2023-02-26T12:57:46.152Z,63112.93
2023-02-26T12:59:12.702Z,63112.93
2023-02-26T13:02:07.093Z,63120.04
2023-02-26T13:03:21.511Z,63116.63
2023-02-26T13:04:47.399Z,63116.63
2023-02-26T13:06:02.179Z,63111.85
2023-02-26T13:07:13.630Z,63094.36
2023-02-26T13:09:58.004Z,63081.52
2023-02-26T13:11:23.885Z,63094.78
2023-02-26T13:12:29.972Z,63064.21
2023-02-26T13:13:54.063Z,63076.89
2023-02-26T13:15:27.401Z,63107.22
2023-02-26T13:16:54.176Z,63087.82
2023-02-26T13:18:05.640Z,63100.50
2023-02-26T13:19:21.543Z,63087.69
2023-02-26T13:20:26.195Z,63100.91
2023-02-26T13:21:37.992Z,63108.01
2023-02-26T13:22:50.338Z,63104.19
2023-02-26T13:23:56.069Z,63117.05
2023-02-26T13:25:08.746Z,63113.06